createdAt,value
2023-04-30T00:01:00.731Z,10.67
2023-04-30T00:03:29.636Z,10.70
2023-04-30T00:05:58.750Z,10.62
2023-04-30T00:08:27.565Z,10.45
2023-04-30T00:10:56.327Z,10.32
2023-04-30T00:13:25.166Z,10.26
2023-04-30T00:15:54.028Z,10.12
2023-04-30T00:18:24.272Z,9.93
2023-04-30T00:20:53.594Z,9.72
2023-04-30T00:23:22.424Z,9.56
2023-04-30T00:25:51.143Z,9.46
2023-04-30T00:28:20.080Z,9.37
2023-04-30T00:30:48.765Z,9.25
2023-04-30T00:33:17.567Z,9.17
2023-04-30T00:35:47.691Z,9.16
2023-04-30T00:38:16.483Z,9.09
2023-04-30T00:40:46.429Z,9.03
2023-04-30T00:43:15.236Z,8.97
2023-04-30T00:45:43.988Z,8.93
2023-04-30T00:48:13.281Z,8.80
2023-04-30T00:50:42.847Z,8.66
2023-04-30T00:53:13.230Z,8.56
2023-04-30T00:55:43.263Z,8.45
2023-04-30T00:58:12.400Z,8.47
2023-04-30T01:00:47.204Z,8.45
2023-04-30T01:03:16.376Z,8.31
2023-04-30T01:05:45.382Z,8.20
2023-04-30T01:08:16.011Z,8.16
2023-04-30T01:10:52.389Z,8.14
2023-04-30T01:13:30.062Z,8.09
2023-04-30T01:16:04.205Z,7.97
2023-04-30T01:18:40.210Z,7.95
2023-04-30T01:21:12.334Z,7.96
2023-04-30T01:24:07.763Z,7.91
2023-04-30T01:26:55.100Z,7.83
2023-04-30T01:29:27.969Z,7.75
2023-04-30T01:31:56.816Z,7.63
2023-04-30T01:34:25.827Z,7.54
2023-04-30T01:37:06.844Z,7.52
2023-04-30T01:40:12.492Z,7.58
2023-04-30T01:42:50.131Z,7.56
2023-04-30T01:45:34.082Z,7.46
2023-04-30T01:48:15.739Z,7.37
2023-04-30T01:50:52.064Z,7.19
2023-04-30T01:53:25.012Z,7.13
2023-04-30T01:56:00.826Z,7.02
2023-04-30T01:58:31.138Z,6.94
2023-04-30T02:01:01.710Z,6.85
2023-04-30T02:03:30.599Z,6.83
2023-04-30T02:06:00.212Z,6.87
2023-04-30T02:08:29.181Z,6.87
2023-04-30T02:10:57.884Z,6.82
2023-04-30T02:13:26.671Z,6.87
2023-04-30T02:15:55.671Z,6.87
2023-04-30T02:18:25.837Z,6.85
2023-04-30T02:20:54.874Z,6.80
2023-04-30T02:23:23.657Z,6.72
2023-04-30T02:25:52.422Z,6.68
2023-04-30T02:28:21.241Z,6.67
2023-04-30T02:30:50.088Z,6.67
2023-04-30T02:33:18.835Z,6.63
2023-04-30T02:35:49.042Z,6.59
2023-04-30T02:38:17.846Z,6.51
2023-04-30T02:40:46.608Z,6.44
2023-04-30T02:43:15.473Z,6.35
2023-04-30T02:45:44.229Z,6.24
2023-04-30T02:48:13.552Z,6.18
2023-04-30T02:50:44.944Z,6.09
2023-04-30T02:53:15.178Z,6.04
2023-04-30T02:55:44.069Z,5.95
2023-04-30T02:58:13.559Z,5.85
2023-04-30T03:00:42.302Z,5.82
2023-04-30T03:03:11.358Z,5.87
2023-04-30T03:05:40.323Z,5.91
2023-04-30T03:08:09.132Z,5.90
2023-04-30T03:10:40.588Z,5.84
2023-04-30T03:13:09.719Z,5.92
2023-04-30T03:15:38.656Z,5.93
2023-04-30T03:18:07.873Z,5.96
2023-04-30T03:20:36.650Z,6.04
2023-04-30T03:23:05.589Z,6.05
2023-04-30T03:25:35.639Z,5.99
2023-04-30T03:28:09.115Z,5.92
2023-04-30T03:30:37.938Z,5.92
2023-04-30T03:33:09.209Z,5.90
2023-04-30T03:35:38.038Z,5.89
2023-04-30T03:38:06.913Z,5.91
2023-04-30T03:40:35.709Z,5.96
2023-04-30T03:43:06.783Z,5.99
2023-04-30T03:45:36.398Z,6.01
2023-04-30T03:48:05.416Z,6.11
2023-04-30T03:50:34.300Z,6.13
2023-04-30T03:53:03.243Z,6.14
2023-04-30T03:55:32.161Z,6.13
2023-04-30T03:58:01.000Z,6.24
2023-04-30T04:00:31.280Z,6.31
2023-04-30T04:03:00.510Z,6.32
2023-04-30T04:05:30.410Z,6.27
2023-04-30T04:07:59.262Z,6.26
2023-04-30T04:10:28.057Z,6.24
2023-04-30T04:12:56.790Z,6.28
2023-04-30T04:15:25.606Z,6.25
2023-04-30T04:17:59.628Z,5.79
2023-04-30T04:20:30.018Z,6.24
2023-04-30T04:22:58.848Z,6.26
2023-04-30T04:25:28.726Z,6.30
2023-04-30T04:27:57.536Z,6.35
2023-04-30T04:30:26.807Z,6.40
2023-04-30T04:32:55.850Z,6.46
2023-04-30T04:35:26.078Z,6.51
2023-04-30T04:37:55.017Z,6.55
2023-04-30T04:40:23.814Z,6.56
2023-04-30T04:42:52.656Z,6.59
2023-04-30T04:45:21.736Z,6.57
2023-04-30T04:47:52.175Z,6.56
2023-04-30T04:50:21.296Z,6.58
2023-04-30T04:52:51.488Z,6.65
2023-04-30T04:55:20.470Z,6.37
2023-04-30T04:57:49.352Z,6.76
2023-04-30T05:00:19.155Z,6.83
2023-04-30T05:02:48.115Z,6.93
2023-04-30T05:05:17.105Z,7.05
2023-04-30T05:07:46.094Z,7.16
2023-04-30T05:10:16.307Z,7.26
2023-04-30T05:12:45.033Z,7.39
2023-04-30T05:15:13.986Z,7.50
2023-04-30T05:17:42.998Z,7.55
2023-04-30T05:20:12.981Z,7.63
2023-04-30T05:22:43.716Z,7.64
2023-04-30T05:25:12.622Z,7.72
2023-04-30T05:27:45.949Z,7.74
2023-04-30T05:30:15.764Z,7.86
2023-04-30T05:32:50.670Z,7.87
2023-04-30T05:35:20.287Z,7.91
2023-04-30T05:37:49.111Z,7.85
2023-04-30T05:40:18.486Z,7.89
2023-04-30T05:42:48.611Z,7.84
2023-04-30T05:45:18.394Z,7.78
2023-04-30T05:47:47.324Z,7.94
2023-04-30T05:50:16.318Z,7.99
2023-04-30T05:52:45.124Z,7.93
2023-04-30T05:55:16.342Z,7.91
2023-04-30T05:57:45.396Z,7.85
2023-04-30T06:00:18.001Z,7.90
2023-04-30T06:02:46.892Z,8.02
2023-04-30T06:05:18.547Z,8.00
2023-04-30T06:07:47.388Z,8.07
2023-04-30T06:10:16.561Z,8.08
2023-04-30T06:12:45.333Z,8.09
2023-04-30T06:15:16.282Z,8.10
2023-04-30T06:17:46.513Z,8.16
2023-04-30T06:20:17.083Z,8.12
2023-04-30T06:22:46.788Z,8.10
2023-04-30T06:25:16.150Z,8.07
2023-04-30T06:27:44.935Z,8.14
2023-04-30T06:30:19.134Z,8.26
2023-04-30T06:32:47.947Z,8.35
2023-04-30T06:35:19.265Z,8.36
2023-04-30T06:37:48.078Z,8.40
2023-04-30T06:40:17.015Z,8.37
2023-04-30T06:42:47.558Z,8.43
2023-04-30T06:45:18.086Z,8.35
2023-04-30T06:47:51.489Z,8.41
2023-04-30T06:50:21.498Z,8.43
2023-04-30T06:52:50.348Z,8.50
2023-04-30T06:55:20.661Z,8.52
2023-04-30T06:57:49.500Z,8.58
2023-04-30T07:00:19.680Z,8.72
2023-04-30T07:02:52.081Z,8.72
2023-04-30T07:05:21.006Z,8.73
2023-04-30T07:07:50.253Z,8.77
2023-04-30T07:10:19.168Z,8.82
2023-04-30T07:12:48.098Z,8.85
2023-04-30T07:15:18.694Z,8.94
2023-04-30T07:17:47.489Z,9.04
2023-04-30T07:20:16.775Z,9.02
2023-04-30T07:22:46.190Z,9.05
2023-04-30T07:25:15.146Z,9.11
2023-04-30T07:27:44.956Z,9.20
2023-04-30T07:30:14.027Z,9.29
2023-04-30T07:32:44.299Z,9.32
2023-04-30T07:35:13.855Z,9.37
2023-04-30T07:37:43.933Z,9.48
2023-04-30T07:40:21.914Z,9.57
2023-04-30T07:42:50.987Z,9.68
2023-04-30T07:45:19.909Z,9.82
2023-04-30T07:47:50.099Z,9.77
2023-04-30T07:50:19.272Z,9.75
2023-04-30T07:52:50.267Z,9.76
2023-04-30T07:55:19.145Z,9.78
2023-04-30T07:57:47.884Z,10.04
2023-04-30T08:00:17.612Z,10.22
2023-04-30T08:02:48.561Z,10.21
2023-04-30T08:05:19.096Z,10.40
2023-04-30T08:07:47.891Z,10.59
2023-04-30T08:10:16.751Z,10.87
2023-04-30T08:12:45.606Z,11.08
2023-04-30T08:15:14.483Z,11.42
2023-04-30T08:17:43.314Z,11.79
2023-04-30T08:20:12.942Z,11.98
2023-04-30T08:22:43.282Z,12.05
2023-04-30T08:25:13.274Z,12.01
2023-04-30T08:27:42.045Z,11.85
2023-04-30T08:30:11.364Z,11.59
2023-04-30T08:32:40.264Z,11.53
2023-04-30T08:35:10.543Z,11.75
2023-04-30T08:37:39.258Z,12.19
2023-04-30T08:40:12.146Z,12.43
2023-04-30T08:42:47.279Z,12.48
2023-04-30T08:45:16.261Z,12.61
2023-04-30T08:47:46.274Z,12.37
2023-04-30T08:50:15.126Z,12.03
2023-04-30T08:52:44.962Z,12.05
2023-04-30T08:55:15.174Z,12.19
2023-04-30T08:57:43.984Z,12.22
2023-04-30T09:00:13.785Z,12.06
2023-04-30T09:02:43.392Z,12.09
2023-04-30T09:05:15.879Z,12.29
2023-04-30T09:10:21.562Z,12.16
2023-04-30T09:13:01.406Z,12.17
2023-04-30T09:15:31.767Z,12.38
2023-04-30T09:18:18.518Z,12.44
2023-04-30T09:20:58.383Z,12.33
2023-04-30T09:23:27.332Z,12.34
2023-04-30T09:25:57.980Z,12.52
2023-04-30T09:28:28.755Z,12.54
2023-04-30T09:30:59.258Z,12.43
2023-04-30T09:33:30.283Z,12.38
2023-04-30T09:35:59.253Z,12.72
2023-04-30T09:38:30.034Z,12.86
2023-04-30T09:41:02.491Z,12.63
2023-04-30T09:43:31.638Z,12.51
2023-04-30T09:46:01.097Z,12.37
2023-04-30T09:48:30.105Z,12.13
2023-04-30T09:50:59.512Z,11.94
2023-04-30T09:53:32.179Z,11.92
2023-04-30T09:56:07.564Z,12.04
2023-04-30T09:58:39.404Z,12.22
2023-04-30T10:01:09.131Z,12.30
2023-04-30T10:03:40.411Z,12.34
2023-04-30T10:06:10.033Z,12.31
2023-04-30T10:08:43.654Z,12.27
2023-04-30T10:11:19.916Z,12.13
2023-04-30T10:13:54.110Z,11.92
2023-04-30T10:16:35.009Z,12.12
2023-04-30T10:19:08.293Z,12.04
2023-04-30T10:21:41.615Z,12.06
2023-04-30T10:24:11.597Z,12.13
2023-04-30T10:26:43.580Z,12.12
2023-04-30T10:29:14.239Z,12.06
2023-04-30T10:31:46.439Z,12.08
2023-04-30T10:34:24.055Z,12.17
2023-04-30T10:37:00.146Z,12.06
2023-04-30T10:39:29.779Z,11.99
2023-04-30T10:42:11.239Z,12.15
2023-04-30T10:44:40.879Z,12.21
2023-04-30T10:47:11.542Z,12.27
2023-04-30T10:49:43.201Z,12.30
2023-04-30T10:52:13.253Z,12.31
2023-04-30T10:54:50.430Z,12.38
2023-04-30T10:57:22.754Z,12.48
2023-04-30T10:59:55.664Z,12.40
2023-04-30T11:02:24.634Z,12.35
2023-04-30T11:05:12.708Z,12.38
2023-04-30T11:07:50.004Z,12.38
2023-04-30T11:10:22.407Z,12.51
2023-04-30T11:12:54.109Z,12.69
2023-04-30T11:15:26.461Z,12.76
2023-04-30T11:17:59.661Z,12.63
2023-04-30T11:20:29.156Z,12.65
2023-04-30T11:23:11.380Z,12.69
2023-04-30T11:25:44.632Z,12.82
2023-04-30T11:28:18.945Z,12.84
2023-04-30T11:30:55.374Z,12.96
2023-04-30T11:33:25.847Z,13.13
2023-04-30T11:35:56.164Z,13.11
2023-04-30T11:38:28.466Z,13.11
2023-04-30T11:40:57.970Z,13.12
2023-04-30T11:43:29.802Z,13.08
2023-04-30T11:46:06.296Z,13.34
2023-04-30T11:48:36.718Z,13.34
2023-04-30T11:51:15.018Z,13.17
2023-04-30T11:53:44.185Z,13.03
2023-04-30T11:56:13.014Z,13.00
2023-04-30T11:58:43.171Z,12.95
2023-04-30T12:01:12.034Z,13.11
2023-04-30T12:03:44.775Z,12.97
2023-04-30T12:06:22.645Z,12.92
2023-04-30T12:08:53.342Z,13.00
2023-04-30T12:11:25.324Z,13.24
2023-04-30T12:13:56.971Z,13.34
2023-04-30T12:16:26.633Z,13.36
2023-04-30T12:18:55.932Z,13.42
2023-04-30T12:21:25.034Z,13.26
2023-04-30T12:23:53.880Z,13.22
2023-04-30T12:26:22.648Z,13.22
2023-04-30T12:28:52.704Z,13.33
2023-04-30T12:31:22.873Z,13.21
2023-04-30T12:34:04.626Z,13.22
2023-04-30T12:36:34.071Z,13.52
2023-04-30T12:39:09.599Z,13.58
2023-04-30T12:41:41.419Z,13.53
2023-04-30T12:44:20.019Z,13.52
2023-04-30T12:46:51.368Z,13.49
2023-04-30T12:49:27.877Z,13.56
2023-04-30T12:52:01.731Z,13.56
2023-04-30T12:54:31.508Z,13.50
2023-04-30T12:57:02.081Z,13.53
2023-04-30T12:59:31.323Z,13.78
2023-04-30T13:02:10.076Z,13.82
2023-04-30T13:04:39.635Z,13.84
2023-04-30T13:07:08.608Z,13.83
2023-04-30T13:09:38.689Z,13.79
2023-04-30T13:12:07.737Z,13.81
2023-04-30T13:14:36.715Z,13.76
2023-04-30T13:17:11.071Z,13.69
2023-04-30T13:19:42.161Z,13.57
2023-04-30T13:22:13.452Z,13.57
2023-04-30T13:27:31.951Z,13.87
2023-04-30T13:30:04.857Z,14.02
2023-04-30T13:32:37.466Z,13.94
2023-04-30T13:35:23.823Z,13.93
2023-04-30T13:37:55.946Z,14.11
2023-04-30T13:40:38.647Z,14.04
2023-04-30T13:43:08.936Z,14.17
2023-04-30T13:45:39.947Z,14.08
2023-04-30T13:48:11.606Z,14.04
2023-04-30T13:50:45.875Z,14.15
2023-04-30T13:53:17.863Z,13.94
2023-04-30T13:55:49.527Z,13.84
2023-04-30T13:58:20.952Z,13.90
2023-04-30T14:00:54.014Z,14.03
2023-04-30T14:03:26.052Z,13.93
2023-04-30T14:05:56.579Z,14.10
2023-04-30T14:08:25.501Z,14.16
2023-04-30T14:10:54.601Z,14.09
2023-04-30T14:13:23.466Z,14.07
2023-04-30T14:15:52.659Z,13.83
2023-04-30T14:18:28.282Z,14.25
2023-04-30T14:20:59.019Z,14.10
2023-04-30T14:23:29.211Z,13.95
2023-04-30T14:25:58.083Z,13.93
2023-04-30T14:28:27.069Z,13.97
2023-04-30T14:30:56.232Z,14.09
2023-04-30T14:33:25.120Z,14.44
2023-04-30T14:35:54.869Z,14.36
2023-04-30T14:38:24.994Z,14.25
2023-04-30T14:40:53.834Z,14.16
2023-04-30T14:43:22.812Z,14.10
2023-04-30T14:45:51.739Z,14.09
2023-04-30T14:48:23.605Z,14.08
2023-04-30T14:50:52.795Z,14.11
2023-04-30T14:53:21.671Z,14.18
2023-04-30T14:55:52.242Z,14.16
2023-04-30T14:58:21.205Z,14.31
2023-04-30T15:00:50.863Z,14.30
2023-04-30T15:03:22.700Z,14.29
2023-04-30T15:05:51.784Z,14.43
2023-04-30T15:08:20.538Z,14.39
2023-04-30T15:10:50.731Z,14.37
2023-04-30T15:13:19.481Z,14.34
2023-04-30T15:15:49.662Z,14.32
2023-04-30T15:18:18.638Z,14.34
2023-04-30T15:20:47.537Z,14.34
2023-04-30T15:23:16.708Z,14.35
2023-04-30T15:25:45.861Z,14.41
2023-04-30T15:28:16.958Z,14.45
2023-04-30T15:30:45.854Z,14.46
2023-04-30T15:33:14.642Z,14.41
2023-04-30T15:35:43.467Z,14.48
2023-04-30T15:38:12.219Z,14.48
2023-04-30T15:40:40.964Z,14.47
2023-04-30T15:43:09.707Z,14.48
2023-04-30T15:45:39.938Z,14.49
2023-04-30T15:48:08.870Z,14.44
2023-04-30T15:50:38.466Z,14.43
2023-04-30T15:53:07.295Z,14.46
2023-04-30T15:55:36.204Z,14.42
2023-04-30T15:58:05.049Z,14.34
2023-04-30T16:00:34.157Z,14.32
2023-04-30T16:03:04.316Z,14.26
2023-04-30T16:05:33.866Z,14.25
2023-04-30T16:08:02.720Z,14.17
2023-04-30T16:10:31.642Z,14.17
2023-04-30T16:13:00.415Z,14.18
2023-04-30T16:15:30.192Z,13.93
2023-04-30T16:17:59.115Z,14.46
2023-04-30T16:20:30.548Z,14.56
2023-04-30T16:22:59.404Z,14.45
2023-04-30T16:25:28.712Z,14.39
2023-04-30T16:27:57.649Z,14.36
2023-04-30T16:30:26.550Z,14.33
2023-04-30T16:32:55.381Z,14.29
2023-04-30T16:35:24.663Z,14.32
2023-04-30T16:37:55.224Z,14.45
2023-04-30T16:40:23.985Z,14.44
2023-04-30T16:42:52.861Z,14.52
2023-04-30T16:45:21.993Z,14.71
2023-04-30T16:47:51.006Z,14.84
2023-04-30T16:50:19.968Z,14.99
2023-04-30T16:52:48.747Z,14.49
2023-04-30T16:55:19.002Z,14.83
2023-04-30T16:57:48.031Z,14.90
2023-04-30T17:00:17.753Z,15.01
2023-04-30T17:02:48.960Z,15.02
2023-04-30T17:05:18.095Z,15.13
2023-04-30T17:07:46.873Z,15.07
2023-04-30T17:10:18.872Z,15.22
2023-04-30T17:12:47.836Z,15.28
2023-04-30T17:15:18.451Z,15.19
2023-04-30T17:17:47.732Z,15.12
2023-04-30T17:20:16.585Z,15.20
2023-04-30T17:22:45.522Z,15.41
2023-04-30T17:25:14.525Z,15.32
2023-04-30T17:27:44.735Z,15.22
2023-04-30T17:30:15.081Z,15.26
2023-04-30T17:32:44.392Z,15.43
2023-04-30T17:35:13.876Z,15.52
2023-04-30T17:37:42.750Z,15.59
2023-04-30T17:40:12.132Z,15.55
2023-04-30T17:42:40.939Z,15.15
2023-04-30T17:45:12.139Z,14.94
2023-04-30T17:47:43.304Z,14.60
2023-04-30T17:50:12.272Z,14.30
2023-04-30T17:52:41.317Z,14.13
2023-04-30T17:55:10.795Z,13.91
2023-04-30T17:57:39.638Z,13.73
2023-04-30T18:00:11.304Z,13.52
2023-04-30T18:02:43.172Z,13.35
2023-04-30T18:05:12.815Z,13.20
2023-04-30T18:07:41.616Z,13.03
2023-04-30T18:10:11.270Z,12.84
2023-04-30T18:12:40.307Z,12.71
2023-04-30T18:15:13.155Z,12.60
2023-04-30T18:17:43.199Z,12.46
2023-04-30T18:20:13.132Z,12.30
2023-04-30T18:22:43.571Z,12.21
2023-04-30T18:25:13.342Z,12.02
2023-04-30T18:27:42.192Z,11.85
2023-04-30T18:30:12.991Z,11.76
2023-04-30T18:32:44.176Z,11.66
2023-04-30T18:35:13.319Z,11.50
2023-04-30T18:37:42.184Z,11.37
2023-04-30T18:40:12.158Z,11.20
2023-04-30T18:42:40.946Z,11.07
2023-04-30T18:45:12.276Z,10.93
2023-04-30T18:47:41.116Z,10.25
2023-04-30T18:50:15.341Z,10.45
2023-04-30T18:52:44.409Z,10.29
2023-04-30T18:55:14.440Z,10.07
2023-04-30T18:57:43.569Z,9.90
2023-04-30T19:00:15.168Z,9.74
2023-04-30T19:02:44.191Z,9.62
2023-04-30T19:05:14.250Z,9.51
2023-04-30T19:07:43.228Z,9.99
2023-04-30T19:10:12.324Z,10.23
2023-04-30T19:12:43.987Z,10.57
2023-04-30T19:15:15.576Z,10.33
2023-04-30T19:17:44.647Z,10.31
2023-04-30T19:20:14.190Z,10.33
2023-04-30T19:22:43.633Z,10.29
2023-04-30T19:25:14.748Z,10.20
2023-04-30T19:27:44.147Z,10.04
2023-04-30T19:30:16.159Z,9.84
2023-04-30T19:32:44.957Z,9.90
2023-04-30T19:35:13.822Z,9.84
2023-04-30T19:37:42.856Z,9.67
2023-04-30T19:40:12.551Z,9.56
2023-04-30T19:42:41.413Z,9.52
2023-04-30T19:45:11.393Z,9.52
2023-04-30T19:47:41.638Z,9.52
2023-04-30T19:50:11.173Z,9.46
2023-04-30T19:52:39.957Z,9.37
2023-04-30T19:55:09.352Z,9.25
2023-04-30T19:57:38.353Z,9.09
2023-04-30T20:00:08.614Z,9.06
2023-04-30T20:02:37.533Z,8.99
2023-04-30T20:05:10.198Z,8.91
2023-04-30T20:07:39.006Z,8.86
2023-04-30T20:10:09.775Z,8.78
2023-04-30T20:12:39.048Z,8.62
2023-04-30T20:15:08.852Z,8.50
2023-04-30T20:17:37.898Z,8.49
2023-04-30T20:20:09.284Z,8.50
2023-04-30T20:22:37.997Z,8.50
2023-04-30T20:25:08.225Z,8.60
2023-04-30T20:27:37.013Z,8.65
2023-04-30T20:30:06.152Z,8.61
2023-04-30T20:32:35.644Z,8.61
2023-04-30T20:35:05.220Z,8.63
2023-04-30T20:37:35.766Z,8.63
2023-04-30T20:40:07.850Z,8.65
2023-04-30T20:42:36.914Z,8.62
2023-04-30T20:45:06.544Z,8.62
2023-04-30T20:47:35.361Z,8.79
2023-04-30T20:50:04.428Z,8.66
2023-04-30T20:52:34.963Z,8.69
2023-04-30T20:55:03.998Z,8.52
2023-04-30T20:57:32.746Z,8.42
2023-04-30T21:00:01.560Z,8.44
2023-04-30T21:02:30.858Z,8.41
2023-04-30T21:05:04.581Z,8.49
2023-04-30T21:07:35.369Z,8.48
2023-04-30T21:10:05.169Z,8.50
2023-04-30T21:12:34.320Z,8.44
2023-04-30T21:15:03.563Z,8.42
2023-04-30T21:17:34.019Z,8.40
2023-04-30T21:20:03.949Z,8.31
2023-04-30T21:22:34.368Z,8.25
2023-04-30T21:25:03.237Z,8.22
2023-04-30T21:27:32.037Z,8.21
2023-04-30T21:30:00.806Z,8.16
2023-04-30T21:32:29.613Z,8.04
2023-04-30T21:34:58.496Z,7.91
2023-04-30T21:37:28.227Z,7.81
2023-04-30T21:39:58.744Z,7.65
2023-04-30T21:42:27.629Z,7.49
2023-04-30T21:44:57.226Z,7.42
2023-04-30T21:47:26.726Z,7.33
2023-04-30T21:49:58.685Z,7.25
2023-04-30T21:52:27.746Z,7.16
2023-04-30T21:54:58.546Z,7.03
2023-04-30T21:57:28.525Z,6.93
2023-04-30T22:00:04.401Z,6.88
2023-04-30T22:02:33.923Z,6.86
2023-04-30T22:05:04.428Z,6.86
2023-04-30T22:07:33.254Z,6.86
2023-04-30T22:10:05.713Z,6.82
2023-04-30T22:12:35.023Z,6.78
2023-04-30T22:15:04.737Z,6.75
2023-04-30T22:17:33.672Z,6.75
2023-04-30T22:20:04.766Z,6.74
2023-04-30T22:22:33.900Z,6.74
2023-04-30T22:25:04.589Z,6.63
2023-04-30T22:27:33.413Z,6.50
2023-04-30T22:30:02.206Z,6.47
2023-04-30T22:32:32.377Z,6.38
2023-04-30T22:35:01.200Z,5.79
2023-04-30T22:37:31.172Z,6.20
2023-04-30T22:39:59.969Z,6.15
2023-04-30T22:42:30.773Z,6.15
2023-04-30T22:45:00.135Z,6.09
2023-04-30T22:47:29.192Z,6.04
2023-04-30T22:49:58.805Z,6.07
2023-04-30T22:52:29.784Z,6.09
2023-04-30T22:54:58.663Z,6.11
2023-04-30T22:57:27.430Z,6.14
2023-04-30T22:59:57.903Z,6.18
2023-04-30T23:02:28.696Z,6.20
2023-04-30T23:04:57.663Z,6.25
2023-04-30T23:07:26.462Z,6.23
2023-04-30T23:09:55.570Z,6.16
2023-04-30T23:12:24.443Z,6.12
2023-04-30T23:14:53.642Z,6.14
2023-04-30T23:17:24.249Z,6.14
2023-04-30T23:19:53.107Z,6.13
2023-04-30T23:22:24.945Z,6.15
2023-04-30T23:24:55.433Z,6.21
2023-04-30T23:27:24.351Z,6.24
2023-04-30T23:29:53.344Z,6.33
2023-04-30T23:32:23.765Z,6.35
2023-04-30T23:34:52.533Z,6.29
2023-04-30T23:37:21.331Z,6.21
2023-04-30T23:39:54.358Z,6.18
2023-04-30T23:42:23.376Z,6.13
2023-04-30T23:44:52.080Z,6.12
2023-04-30T23:47:22.477Z,6.09
2023-04-30T23:49:51.292Z,6.10
2023-04-30T23:52:20.016Z,6.10
2023-04-30T23:54:49.136Z,6.05
2023-04-30T23:57:18.116Z,6.02
2023-04-30T23:59:47.245Z,6.00
